sensor_id;sensor_type;location;lat;lon;timestamp;pressure;altitude;pressure_sealevel;temperature;humidity
59513;BME280;45330;51.634;5.562;2022-11-15T00:00:07;100782.50;;;6.22;100.00
59513;BME280;45330;51.634;5.562;2022-11-15T00:02:33;100758.28;;;6.12;100.00
59513;BME280;45330;51.634;5.562;2022-11-15T00:04:58;100781.75;;;6.32;100.00
59513;BME280;45330;51.634;5.562;2022-11-15T00:07:24;100757.50;;;6.19;100.00
59513;BME280;45330;51.634;5.562;2022-11-15T00:09:49;100753.28;;;6.27;100.00
59513;BME280;45330;51.634;5.562;2022-11-15T00:12:14;100772.38;;;6.42;100.00
59513;BME280;45330;51.634;5.562;2022-11-15T00:14:40;100776.69;;;6.44;100.00
59513;BME280;45330;51.634;5.562;2022-11-15T00:17:05;100769.81;;;6.45;100.00
59513;BME280;45330;51.634;5.562;2022-11-15T00:19:30;100775.91;;;6.50;100.00
59513;BME280;45330;51.634;5.562;2022-11-15T00:21:56;100776.75;;;6.52;100.00
59513;BME280;45330;51.634;5.562;2022-11-15T00:24:21;100775.91;;;6.51;100.00
59513;BME280;45330;51.634;5.562;2022-11-15T00:26:47;100774.25;;;6.60;100.00
59513;BME280;45330;51.634;5.562;2022-11-15T00:29:12;100766.50;;;6.58;100.00
59513;BME280;45330;51.634;5.562;2022-11-15T00:31:37;100772.56;;;6.63;100.00
59513;BME280;45330;51.634;5.562;2022-11-15T00:34:03;100769.16;;;6.69;100.00
59513;BME280;45330;51.634;5.562;2022-11-15T00:36:28;100766.59;;;6.72;100.00
59513;BME280;45330;51.634;5.562;2022-11-15T00:38:53;100754.47;;;6.66;100.00
59513;BME280;45330;51.634;5.562;2022-11-15T00:41:19;100763.16;;;6.73;100.00
59513;BME280;45330;51.634;5.562;2022-11-15T00:43:44;100761.50;;;6.80;100.00
59513;BME280;45330;51.634;5.562;2022-11-15T00:46:10;100746.81;;;6.76;100.00
59513;BME280;45330;51.634;5.562;2022-11-15T00:48:35;100758.09;;;6.87;100.00
59513;BME280;45330;51.634;5.562;2022-11-15T00:51:01;100761.59;;;6.92;100.00
59513;BME280;45330;51.634;5.562;2022-11-15T00:53:26;100745.19;;;6.92;100.00
59513;BME280;45330;51.634;5.562;2022-11-15T00:55:52;100727.97;;;6.91;100.00
59513;BME280;45330;51.634;5.562;2022-11-15T00:58:18;100752.19;;;7.05;100.00
59513;BME280;45330;51.634;5.562;2022-11-15T01:00:43;100746.19;;;7.09;100.00
59513;BME280;45330;51.634;5.562;2022-11-15T01:03:09;100736.69;;;7.05;100.00
59513;BME280;45330;51.634;5.562;2022-11-15T01:05:37;100728.94;;;7.10;100.00
59513;BME280;45330;51.634;5.562;2022-11-15T01:08:03;100736.72;;;7.14;100.00
59513;BME280;45330;51.634;5.562;2022-11-15T01:10:28;100746.28;;;7.23;100.00
59513;BME280;45330;51.634;5.562;2022-11-15T01:12:54;100748.88;;;7.28;100.00
59513;BME280;45330;51.634;5.562;2022-11-15T01:15:20;100741.97;;;7.27;100.00
59513;BME280;45330;51.634;5.562;2022-11-15T01:17:45;100744.63;;;7.34;100.00
59513;BME280;45330;51.634;5.562;2022-11-15T01:20:11;100736.00;;;7.38;100.00
59513;BME280;45330;51.634;5.562;2022-11-15T01:22:36;100713.56;;;7.34;100.00
59513;BME280;45330;51.634;5.562;2022-11-15T01:25:02;100725.69;;;7.46;100.00
59513;BME280;45330;51.634;5.562;2022-11-15T01:27:27;100727.44;;;7.49;100.00
59513;BME280;45330;51.634;5.562;2022-11-15T01:29:53;100708.41;;;7.45;100.00
59513;BME280;45330;51.634;5.562;2022-11-15T01:32:18;100707.56;;;7.49;100.00
59513;BME280;45330;51.634;5.562;2022-11-15T01:34:44;100716.25;;;7.62;100.00
59513;BME280;45330;51.634;5.562;2022-11-15T01:37:09;100724.91;;;7.63;100.00
59513;BME280;45330;51.634;5.562;2022-11-15T01:39:34;100711.09;;;7.64;100.00
59513;BME280;45330;51.634;5.562;2022-11-15T01:42:00;100699.84;;;7.60;100.00
59513;BME280;45330;51.634;5.562;2022-11-15T01:47:29;100695.50;;;7.56;100.00
59513;BME280;45330;51.634;5.562;2022-11-15T01:49:55;100715.44;;;7.68;100.00
59513;BME280;45330;51.634;5.562;2022-11-15T01:52:26;100701.59;;;7.58;100.00
59513;BME280;45330;51.634;5.562;2022-11-15T01:55:02;100711.94;;;7.64;100.00
59513;BME280;45330;51.634;5.562;2022-11-15T01:57:28;100718.88;;;7.70;100.00
59513;BME280;45330;51.634;5.562;2022-11-15T01:59:54;100718.88;;;7.75;100.00
59513;BME280;45330;51.634;5.562;2022-11-15T02:02:20;100712.84;;;7.77;100.00
59513;BME280;45330;51.634;5.562;2022-11-15T02:04:47;100711.16;;;7.82;100.00
59513;BME280;45330;51.634;5.562;2022-11-15T02:07:15;100697.31;;;7.74;100.00
59513;BME280;45330;51.634;5.562;2022-11-15T02:09:42;100719.81;;;7.89;100.00
59513;BME280;45330;51.634;5.562;2022-11-15T02:12:09;100710.31;;;7.93;100.00
59513;BME280;45330;51.634;5.562;2022-11-15T02:14:38;100684.41;;;7.85;100.00
59513;BME280;45330;51.634;5.562;2022-11-15T02:19:38;100699.09;;;7.98;100.00
59513;BME280;45330;51.634;5.562;2022-11-15T02:28:06;100684.44;;;8.10;100.00
59513;BME280;45330;51.634;5.562;2022-11-15T02:30:55;100684.44;;;8.13;100.00
59513;BME280;45330;51.634;5.562;2022-11-15T02:38:59;100679.25;;;8.28;100.00
59513;BME280;45330;51.634;5.562;2022-11-15T02:41:38;100658.50;;;8.11;100.00
59513;BME280;45330;51.634;5.562;2022-11-15T02:44:14;100679.25;;;8.27;100.00
59513;BME280;45330;51.634;5.562;2022-11-15T02:47:02;100685.31;;;8.33;100.00
59513;BME280;45330;51.634;5.562;2022-11-15T02:49:50;100673.22;;;8.35;100.00
59513;BME280;45330;51.634;5.562;2022-11-15T02:52:17;100671.50;;;8.44;100.00
59513;BME280;45330;51.634;5.562;2022-11-15T02:54:43;100648.16;;;8.37;100.00
59513;BME280;45330;51.634;5.562;2022-11-15T02:57:15;100662.00;;;8.44;100.00
59513;BME280;45330;51.634;5.562;2022-11-15T03:08:08;100660.28;;;8.60;100.00
59513;BME280;45330;51.634;5.562;2022-11-15T03:11:01;100659.44;;;8.61;100.00
59513;BME280;45330;51.634;5.562;2022-11-15T03:19:18;100652.50;;;8.63;100.00
59513;BME280;45330;51.634;5.562;2022-11-15T03:21:41;100647.31;;;8.60;100.00
59513;BME280;45330;51.634;5.562;2022-11-15T03:24:08;100655.97;;;8.67;100.00
59513;BME280;45330;51.634;5.562;2022-11-15T03:26:35;100641.28;;;8.61;100.00
59513;BME280;45330;51.634;5.562;2022-11-15T03:29:09;100644.72;;;8.60;100.00
59513;BME280;45330;51.634;5.562;2022-11-15T03:31:40;100661.13;;;8.74;100.00
59513;BME280;45330;51.634;5.562;2022-11-15T03:37:05;100657.66;;;8.75;100.00
59513;BME280;45330;51.634;5.562;2022-11-15T03:39:31;100648.19;;;8.68;100.00
59513;BME280;45330;51.634;5.562;2022-11-15T03:42:17;100656.78;;;8.72;100.00
59513;BME280;45330;51.634;5.562;2022-11-15T03:44:52;100652.50;;;8.71;100.00
59513;BME280;45330;51.634;5.562;2022-11-15T03:47:27;100659.41;;;8.80;100.00
59513;BME280;45330;51.634;5.562;2022-11-15T03:50:08;100662.00;;;8.81;100.00
59513;BME280;45330;51.634;5.562;2022-11-15T03:52:35;100649.91;;;8.69;100.00
59513;BME280;45330;51.634;5.562;2022-11-15T03:55:03;100651.63;;;8.77;100.00
59513;BME280;45330;51.634;5.562;2022-11-15T03:57:29;100655.94;;;8.85;100.00
59513;BME280;45330;51.634;5.562;2022-11-15T03:59:54;100663.69;;;8.87;100.00
59513;BME280;45330;51.634;5.562;2022-11-15T04:02:22;100656.78;;;8.92;100.00
59513;BME280;45330;51.634;5.562;2022-11-15T04:04:48;100655.03;;;8.96;100.00
59513;BME280;45330;51.634;5.562;2022-11-15T04:07:13;100643.78;;;8.87;100.00
59513;BME280;45330;51.634;5.562;2022-11-15T04:09:38;100642.06;;;8.89;100.00
59513;BME280;45330;51.634;5.562;2022-11-15T04:12:26;100642.94;;;8.93;100.00
59513;BME280;45330;51.634;5.562;2022-11-15T04:15:06;100657.59;;;9.09;100.00
59513;BME280;45330;51.634;5.562;2022-11-15T04:20:05;100661.91;;;9.15;100.00
59513;BME280;45330;51.634;5.562;2022-11-15T04:22:57;100640.31;;;9.01;100.00
59513;BME280;45330;51.634;5.562;2022-11-15T04:25:42;100659.31;;;9.10;100.00
59513;BME280;45330;51.634;5.562;2022-11-15T04:28:08;100655.00;;;9.09;100.00
59513;BME280;45330;51.634;5.562;2022-11-15T04:30:33;100661.91;;;9.14;100.00
59513;BME280;45330;51.634;5.562;2022-11-15T04:32:58;100659.31;;;9.10;100.00
59513;BME280;45330;51.634;5.562;2022-11-15T04:35:26;100650.66;;;9.07;100.00
59513;BME280;45330;51.634;5.562;2022-11-15T04:37:52;100651.53;;;9.14;100.00
59513;BME280;45330;51.634;5.562;2022-11-15T04:40:18;100653.28;;;9.10;100.00
59513;BME280;45330;51.634;5.562;2022-11-15T04:42:43;100650.69;;;9.10;100.00
59513;BME280;45330;51.634;5.562;2022-11-15T04:45:09;100656.75;;;9.07;100.00
59513;BME280;45330;51.634;5.562;2022-11-15T04:47:34;100661.03;;;9.15;100.00
59513;BME280;45330;51.634;5.562;2022-11-15T04:50:00;100662.78;;;9.16;100.00
59513;BME280;45330;51.634;5.562;2022-11-15T04:52:25;100661.03;;;9.19;100.00
59513;BME280;45330;51.634;5.562;2022-11-15T04:54:51;100652.38;;;9.11;100.00
59513;BME280;45330;51.634;5.562;2022-11-15T04:57:19;100671.41;;;9.27;100.00
59513;BME280;45330;51.634;5.562;2022-11-15T04:59:47;100661.03;;;9.25;100.00
59513;BME280;45330;51.634;5.562;2022-11-15T05:02:13;100662.72;;;9.31;100.00
59513;BME280;45330;51.634;5.562;2022-11-15T05:04:38;100659.28;;;9.26;100.00
59513;BME280;45330;51.634;5.562;2022-11-15T05:07:04;100639.41;;;9.19;100.00
59513;BME280;45330;51.634;5.562;2022-11-15T05:09:29;100657.53;;;9.30;100.00
59513;BME280;45330;51.634;5.562;2022-11-15T05:11:55;100656.69;;;9.26;100.00
59513;BME280;45330;51.634;5.562;2022-11-15T05:14:20;100648.88;;;9.26;100.00
59513;BME280;45330;51.634;5.562;2022-11-15T05:16:45;100643.72;;;9.20;100.00
59513;BME280;45330;51.634;5.562;2022-11-15T05:19:11;100649.75;;;9.25;100.00
59513;BME280;45330;51.634;5.562;2022-11-15T05:21:36;100644.59;;;9.17;100.00
59513;BME280;45330;51.634;5.562;2022-11-15T05:24:02;100653.22;;;9.29;100.00
59513;BME280;45330;51.634;5.562;2022-11-15T05:26:28;100650.63;;;9.27;100.00
59513;BME280;45330;51.634;5.562;2022-11-15T05:28:54;100651.44;;;9.32;100.00
59513;BME280;45330;51.634;5.562;2022-11-15T05:31:21;100647.13;;;9.34;100.00
59513;BME280;45330;51.634;5.562;2022-11-15T05:33:46;100649.72;;;9.36;100.00
59513;BME280;45330;51.634;5.562;2022-11-15T05:36:37;100642.78;;;9.33;100.00
59513;BME280;45330;51.634;5.562;2022-11-15T05:39:04;100637.63;;;9.32;100.00
59513;BME280;45330;51.634;5.562;2022-11-15T05:41:52;100645.41;;;9.33;100.00
59513;BME280;45330;51.634;5.562;2022-11-15T05:44:21;100645.38;;;9.35;100.00
59513;BME280;45330;51.634;5.562;2022-11-15T05:46:49;100627.25;;;9.29;100.00
59513;BME280;45330;51.634;5.562;2022-11-15T05:49:18;100623.75;;;9.28;100.00
59513;BME280;45330;51.634;5.562;2022-11-15T05:51:46;100634.16;;;9.34;100.00
59513;BME280;45330;51.634;5.562;2022-11-15T05:54:14;100639.34;;;9.33;100.00
59513;BME280;45330;51.634;5.562;2022-11-15T05:56:40;100647.97;;;9.36;100.00
59513;BME280;45330;51.634;5.562;2022-11-15T05:59:07;100643.66;;;9.31;100.00
59513;BME280;45330;51.634;5.562;2022-11-15T06:01:33;100633.28;;;9.27;100.00
59513;BME280;45330;51.634;5.562;2022-11-15T06:03:58;100644.56;;;9.31;100.00
59513;BME280;45330;51.634;5.562;2022-11-15T06:06:24;100638.50;;;9.27;100.00
59513;BME280;45330;51.634;5.562;2022-11-15T06:08:49;100651.44;;;9.38;100.00
59513;BME280;45330;51.634;5.562;2022-11-15T06:11:15;100656.63;;;9.38;100.00
59513;BME280;45330;51.634;5.562;2022-11-15T06:13:40;100633.28;;;9.27;100.00
59513;BME280;45330;51.634;5.562;2022-11-15T06:16:06;100655.75;;;9.39;100.00
59513;BME280;45330;51.634;5.562;2022-11-15T06:18:32;100662.69;;;9.37;100.00
59513;BME280;45330;51.634;5.562;2022-11-15T06:20:59;100640.25;;;9.27;100.00
59513;BME280;45330;51.634;5.562;2022-11-15T06:23:25;100659.22;;;9.34;100.00
59513;BME280;45330;51.634;5.562;2022-11-15T06:25:50;100658.38;;;9.35;100.00
59513;BME280;45330;51.634;5.562;2022-11-15T06:28:16;100663.56;;;9.33;100.00
59513;BME280;45330;51.634;5.562;2022-11-15T06:30:41;100672.22;;;9.35;100.00
59513;BME280;45330;51.634;5.562;2022-11-15T06:33:06;100653.22;;;9.24;100.00
59513;BME280;45330;51.634;5.562;2022-11-15T06:35:34;100673.91;;;9.39;100.00
59513;BME280;45330;51.634;5.562;2022-11-15T06:38:05;100660.13;;;9.28;100.00
59513;BME280;45330;51.634;5.562;2022-11-15T06:40:33;100663.59;;;9.27;100.00
59513;BME280;45330;51.634;5.562;2022-11-15T06:42:59;100671.34;;;9.36;100.00
59513;BME280;45330;51.634;5.562;2022-11-15T06:45:25;100677.41;;;9.40;100.00
59513;BME280;45330;51.634;5.562;2022-11-15T06:47:50;100680.00;;;9.40;100.00
59513;BME280;45330;51.634;5.562;2022-11-15T06:50:16;100678.28;;;9.36;100.00
59513;BME280;45330;51.634;5.562;2022-11-15T06:52:42;100680.88;;;9.36;100.00
59513;BME280;45330;51.634;5.562;2022-11-15T06:55:08;100695.56;;;9.41;100.00
59513;BME280;45330;51.634;5.562;2022-11-15T06:57:33;100688.69;;;9.30;100.00
59513;BME280;45330;51.634;5.562;2022-11-15T06:59:59;100698.19;;;9.38;100.00
59513;BME280;45330;51.634;5.562;2022-11-15T07:02:24;100684.38;;;9.24;100.00
59513;BME280;45330;51.634;5.562;2022-11-15T07:04:49;100694.72;;;9.33;100.00
59513;BME280;45330;51.634;5.562;2022-11-15T07:07:15;100686.97;;;9.27;100.00
59513;BME280;45330;51.634;5.562;2022-11-15T07:09:40;100694.72;;;9.33;100.00
59513;BME280;45330;51.634;5.562;2022-11-15T07:12:05;100693.91;;;9.30;100.00
59513;BME280;45330;51.634;5.562;2022-11-15T07:14:31;100693.88;;;9.28;100.00
59513;BME280;45330;51.634;5.562;2022-11-15T07:16:56;100690.44;;;9.23;100.00
59513;BME280;45330;51.634;5.562;2022-11-15T07:19:22;100681.81;;;9.15;100.00
59513;BME280;45330;51.634;5.562;2022-11-15T07:21:47;100699.09;;;9.22;100.00
59513;BME280;45330;51.634;5.562;2022-11-15T07:24:12;100692.19;;;9.13;100.00
59513;BME280;45330;51.634;5.562;2022-11-15T07:26:38;100703.44;;;9.21;100.00
59513;BME280;45330;51.634;5.562;2022-11-15T07:29:03;100703.44;;;9.23;100.00
59513;BME280;45330;51.634;5.562;2022-11-15T07:31:29;100693.91;;;9.11;100.00
59513;BME280;45330;51.634;5.562;2022-11-15T07:33:54;100691.34;;;9.16;100.00
59513;BME280;45330;51.634;5.562;2022-11-15T07:36:19;100702.56;;;9.21;100.00
59513;BME280;45330;51.634;5.562;2022-11-15T07:38:45;100704.31;;;9.17;100.00
59513;BME280;45330;51.634;5.562;2022-11-15T07:41:10;100710.31;;;9.24;100.00
59513;BME280;45330;51.634;5.562;2022-11-15T07:43:35;100699.09;;;9.20;100.00
59513;BME280;45330;51.634;5.562;2022-11-15T07:46:08;100687.00;;;9.15;100.00
59513;BME280;45330;51.634;5.562;2022-11-15T07:48:35;100705.16;;;9.27;100.00
59513;BME280;45330;51.634;5.562;2022-11-15T07:51:01;100705.13;;;9.29;100.00
59513;BME280;45330;51.634;5.562;2022-11-15T07:53:26;100693.00;;;9.29;100.00
59513;BME280;45330;51.634;5.562;2022-11-15T07:55:51;100695.59;;;9.32;100.00
59513;BME280;45330;51.634;5.562;2022-11-15T07:58:19;100696.47;;;9.34;100.00
59513;BME280;45330;51.634;5.562;2022-11-15T08:00:44;100676.59;;;9.29;100.00
59513;BME280;45330;51.634;5.562;2022-11-15T08:03:15;100681.75;;;9.32;100.00
59513;BME280;45330;51.634;5.562;2022-11-15T08:05:41;100694.72;;;9.41;100.00
59513;BME280;45330;51.634;5.562;2022-11-15T08:08:11;100676.53;;;9.35;100.00
59513;BME280;45330;51.634;5.562;2022-11-15T08:10:37;100695.53;;;9.46;100.00
59513;BME280;45330;51.634;5.562;2022-11-15T08:13:05;100685.19;;;9.38;100.00
59513;BME280;45330;51.634;5.562;2022-11-15T08:15:32;100707.66;;;9.49;100.00
59513;BME280;45330;51.634;5.562;2022-11-15T08:17:59;100712.00;;;9.47;100.00
59513;BME280;45330;51.634;5.562;2022-11-15T08:20:27;100698.19;;;9.38;100.00
59513;BME280;45330;51.634;5.562;2022-11-15T08:22:55;100705.09;;;9.46;100.00
59513;BME280;45330;51.634;5.562;2022-11-15T08:25:21;100716.31;;;9.51;100.00
59513;BME280;45330;51.634;5.562;2022-11-15T08:27:47;100712.88;;;9.46;100.00
59513;BME280;45330;51.634;5.562;2022-11-15T08:30:13;100714.56;;;9.53;100.00
59513;BME280;45330;51.634;5.562;2022-11-15T08:32:41;100699.00;;;9.48;100.00
59513;BME280;45330;51.634;5.562;2022-11-15T08:35:06;100712.84;;;9.56;100.00
59513;BME280;45330;51.634;5.562;2022-11-15T08:37:32;100683.44;;;9.42;100.00
59513;BME280;45330;51.634;5.562;2022-11-15T08:39:57;100682.63;;;9.35;100.00
59513;BME280;45330;51.634;5.562;2022-11-15T08:42:23;100687.78;;;9.41;100.00
59513;BME280;45330;51.634;5.562;2022-11-15T08:44:48;100698.16;;;9.41;100.00
59513;BME280;45330;51.634;5.562;2022-11-15T08:47:13;100706.00;;;9.35;100.00
59513;BME280;45330;51.634;5.562;2022-11-15T08:49:39;100702.50;;;9.38;100.00
59513;BME280;45330;51.634;5.562;2022-11-15T08:52:04;100692.97;;;9.41;100.00
59513;BME280;45330;51.634;5.562;2022-11-15T08:54:30;100689.47;;;9.49;100.00
59513;BME280;45330;51.634;5.562;2022-11-15T08:56:55;100677.38;;;9.41;100.00
59513;BME280;45330;51.634;5.562;2022-11-15T08:59:20;100686.91;;;9.46;100.00
59513;BME280;45330;51.634;5.562;2022-11-15T09:01:46;100681.72;;;9.42;100.00
59513;BME280;45330;51.634;5.562;2022-11-15T09:04:11;100681.72;;;9.38;100.00
59513;BME280;45330;51.634;5.562;2022-11-15T09:06:36;100669.63;;;9.32;100.00
59513;BME280;45330;51.634;5.562;2022-11-15T09:09:03;100677.41;;;9.31;100.00
59513;BME280;45330;51.634;5.562;2022-11-15T09:11:28;100670.50;;;9.31;100.00
59513;BME280;45330;51.634;5.562;2022-11-15T09:13:54;100675.69;;;9.26;100.00
59513;BME280;45330;51.634;5.562;2022-11-15T09:16:19;100653.25;;;9.16;100.00
59513;BME280;45330;51.634;5.562;2022-11-15T09:18:45;100657.56;;;9.20;100.00
59513;BME280;45330;51.634;5.562;2022-11-15T09:21:10;100660.13;;;9.30;100.00
59513;BME280;45330;51.634;5.562;2022-11-15T09:23:36;100642.78;;;9.33;100.00
59513;BME280;45330;51.634;5.562;2022-11-15T09:26:03;100668.66;;;9.55;100.00
59513;BME280;45330;51.634;5.562;2022-11-15T09:28:30;100626.28;;;9.50;100.00
59513;BME280;45330;51.634;5.562;2022-11-15T09:31:00;100643.53;;;9.66;100.00
59513;BME280;45330;51.634;5.562;2022-11-15T09:33:26;100625.41;;;9.48;100.00
59513;BME280;45330;51.634;5.562;2022-11-15T09:35:51;100641.78;;;9.65;100.00
59513;BME280;45330;51.634;5.562;2022-11-15T09:38:17;100627.13;;;9.52;100.00
59513;BME280;45330;51.634;5.562;2022-11-15T09:40:43;100626.22;;;9.56;100.00
59513;BME280;45330;51.634;5.562;2022-11-15T09:46:08;100641.75;;;9.70;100.00
59513;BME280;45330;51.634;5.562;2022-11-15T09:48:49;100636.53;;;9.77;100.00
59513;BME280;45330;51.634;5.562;2022-11-15T09:51:30;100639.09;;;9.81;100.00
59513;BME280;45330;51.634;5.562;2022-11-15T09:53:59;100649.44;;;9.88;100.00
59513;BME280;45330;51.634;5.562;2022-11-15T09:56:29;100631.25;;;9.87;100.00
59513;BME280;45330;51.634;5.562;2022-11-15T10:04:25;100617.50;;;9.72;100.00
59513;BME280;45330;51.634;5.562;2022-11-15T10:07:00;100629.56;;;9.78;100.00
59513;BME280;45330;51.634;5.562;2022-11-15T10:09:38;100610.59;;;9.68;100.00
59513;BME280;45330;51.634;5.562;2022-11-15T10:12:07;100629.63;;;9.73;100.00
59513;BME280;45330;51.634;5.562;2022-11-15T10:14:34;100601.09;;;9.61;100.00
59513;BME280;45330;51.634;5.562;2022-11-15T10:17:13;100620.09;;;9.72;100.00
59513;BME280;45330;51.634;5.562;2022-11-15T10:20:07;100606.22;;;9.70;100.00
59513;BME280;45330;51.634;5.562;2022-11-15T10:22:44;100608.81;;;9.75;100.00
59513;BME280;45330;51.634;5.562;2022-11-15T10:27:39;100613.03;;;9.93;100.00
59513;BME280;45330;51.634;5.562;2022-11-15T10:30:16;100585.31;;;9.92;100.00
59513;BME280;45330;51.634;5.562;2022-11-15T10:32:43;100604.31;;;10.00;100.00
59513;BME280;45330;51.634;5.562;2022-11-15T10:35:24;100595.66;;;9.95;100.00
59513;BME280;45330;51.634;5.562;2022-11-15T10:37:50;100555.94;;;9.76;100.00
59513;BME280;45330;51.634;5.562;2022-11-15T10:40:22;100571.34;;;10.02;100.00
59513;BME280;45330;51.634;5.562;2022-11-15T10:42:49;100577.41;;;10.01;100.00
59513;BME280;45330;51.634;5.562;2022-11-15T10:45:30;100558.44;;;9.94;100.00
59513;BME280;45330;51.634;5.562;2022-11-15T10:48:20;100564.44;;;9.98;100.00
59513;BME280;45330;51.634;5.562;2022-11-15T10:50:47;100574.84;;;10.03;100.00
59513;BME280;45330;51.634;5.562;2022-11-15T10:55:47;100576.47;;;10.11;100.00
59513;BME280;45330;51.634;5.562;2022-11-15T10:58:41;100573.84;;;10.16;100.00
59513;BME280;45330;51.634;5.562;2022-11-15T11:01:23;100572.06;;;10.21;100.00
59513;BME280;45330;51.634;5.562;2022-11-15T11:06:27;100557.25;;;10.26;100.00
59513;BME280;45330;51.634;5.562;2022-11-15T11:11:23;100551.16;;;10.37;100.00
59513;BME280;45330;51.634;5.562;2022-11-15T11:13:49;100566.69;;;10.43;100.00
59513;BME280;45330;51.634;5.562;2022-11-15T11:27:22;100544.91;;;10.55;100.00
59513;BME280;45330;51.634;5.562;2022-11-15T11:30:06;100525.94;;;10.40;100.00
59513;BME280;45330;51.634;5.562;2022-11-15T11:33:07;100530.25;;;10.44;100.00
59513;BME280;45330;51.634;5.562;2022-11-15T11:49:36;100493.06;;;10.36;100.00
59513;BME280;45330;51.634;5.562;2022-11-15T11:57:47;100485.84;;;10.60;100.00
59513;BME280;45330;51.634;5.562;2022-11-15T12:00:20;100475.38;;;10.66;100.00
59513;BME280;45330;51.634;5.562;2022-11-15T12:05:44;100465.63;;;10.82;100.00
59513;BME280;45330;51.634;5.562;2022-11-15T12:08:35;100462.19;;;10.81;100.00
59513;BME280;45330;51.634;5.562;2022-11-15T12:11:15;100439.69;;;10.74;100.00
59513;BME280;45330;51.634;5.562;2022-11-15T12:13:43;100448.19;;;10.89;100.00
59513;BME280;45330;51.634;5.562;2022-11-15T12:16:20;100430.03;;;10.82;100.00
59513;BME280;45330;51.634;5.562;2022-11-15T12:18:53;100442.91;;;10.93;100.00
59513;BME280;45330;51.634;5.562;2022-11-15T12:23:58;100427.28;;;10.93;100.00
59513;BME280;45330;51.634;5.562;2022-11-15T12:26:30;100423.59;;;11.07;100.00
59513;BME280;45330;51.634;5.562;2022-11-15T12:29:03;100400.28;;;11.01;100.00
59513;BME280;45330;51.634;5.562;2022-11-15T12:34:03;100406.25;;;11.09;100.00
59513;BME280;45330;51.634;5.562;2022-11-15T12:36:36;100416.47;;;11.21;100.00
59513;BME280;45330;51.634;5.562;2022-11-15T12:39:05;100399.25;;;11.12;100.00
59513;BME280;45330;51.634;5.562;2022-11-15T12:41:41;100386.25;;;11.09;100.00
59513;BME280;45330;51.634;5.562;2022-11-15T12:52:05;100379.25;;;11.14;100.00
59513;BME280;45330;51.634;5.562;2022-11-15T12:59:57;100374.91;;;11.13;100.00
59513;BME280;45330;51.634;5.562;2022-11-15T13:02:43;100364.59;;;11.07;100.00
59513;BME280;45330;51.634;5.562;2022-11-15T13:17:40;100330.94;;;10.95;100.00
59513;BME280;45330;51.634;5.562;2022-11-15T13:22:44;100334.22;;;11.08;100.00
59513;BME280;45330;51.634;5.562;2022-11-15T13:28:03;100321.16;;;11.09;100.00
59513;BME280;45330;51.634;5.562;2022-11-15T13:30:35;100320.22;;;11.13;100.00
59513;BME280;45330;51.634;5.562;2022-11-15T13:33:09;100314.78;;;11.27;100.00
59513;BME280;45330;51.634;5.562;2022-11-15T13:35:39;100317.44;;;11.24;100.00
59513;BME280;45330;51.634;5.562;2022-11-15T13:38:05;100303.56;;;11.24;100.00
59513;BME280;45330;51.634;5.562;2022-11-15T13:40:35;100295.66;;;11.30;100.00
59513;BME280;45330;51.634;5.562;2022-11-15T13:43:28;100311.06;;;11.42;100.00
59513;BME280;45330;51.634;5.562;2022-11-15T13:48:32;100301.38;;;11.47;100.00
59513;BME280;45330;51.634;5.562;2022-11-15T13:51:00;100293.56;;;11.49;100.00
59513;BME280;45330;51.634;5.562;2022-11-15T13:53:26;100252.19;;;11.33;100.00
59513;BME280;45330;51.634;5.562;2022-11-15T13:55:53;100272.75;;;11.46;100.00
59513;BME280;45330;51.634;5.562;2022-11-15T13:58:20;100284.66;;;11.61;100.00
59513;BME280;45330;51.634;5.562;2022-11-15T14:00:45;100274.16;;;11.64;100.00
59513;BME280;45330;51.634;5.562;2022-11-15T14:03:25;100260.47;;;11.53;100.00
59513;BME280;45330;51.634;5.562;2022-11-15T14:06:11;100268.94;;;11.64;100.00
59513;BME280;45330;51.634;5.562;2022-11-15T14:08:39;100263.81;;;11.61;100.00
59513;BME280;45330;51.634;5.562;2022-11-15T14:11:17;100263.88;;;11.58;100.00
59513;BME280;45330;51.634;5.562;2022-11-15T14:16:39;100246.63;;;11.50;100.00
59513;BME280;45330;51.634;5.562;2022-11-15T14:19:08;100239.75;;;11.48;100.00
59513;BME280;45330;51.634;5.562;2022-11-15T14:21:34;100229.47;;;11.39;100.00
59513;BME280;45330;51.634;5.562;2022-11-15T14:24:18;100219.97;;;11.36;100.00
59513;BME280;45330;51.634;5.562;2022-11-15T14:26:44;100219.97;;;11.36;100.00
59513;BME280;45330;51.634;5.562;2022-11-15T14:29:27;100220.00;;;11.35;100.00
59513;BME280;45330;51.634;5.562;2022-11-15T14:31:54;100220.81;;;11.38;100.00
59513;BME280;45330;51.634;5.562;2022-11-15T14:34:31;100213.09;;;11.33;100.00
59513;BME280;45330;51.634;5.562;2022-11-15T14:36:57;100207.91;;;11.33;100.00
59513;BME280;45330;51.634;5.562;2022-11-15T14:39:22;100206.06;;;11.37;100.00
59513;BME280;45330;51.634;5.562;2022-11-15T14:41:50;100194.78;;;11.38;100.00
59513;BME280;45330;51.634;5.562;2022-11-15T14:44:15;100193.25;;;11.26;100.00
59513;BME280;45330;51.634;5.562;2022-11-15T14:46:43;100196.59;;;11.33;100.00
59513;BME280;45330;51.634;5.562;2022-11-15T14:49:09;100196.59;;;11.33;100.00
59513;BME280;45330;51.634;5.562;2022-11-15T14:51:35;100176.00;;;11.21;100.00
59513;BME280;45330;51.634;5.562;2022-11-15T14:54:00;100192.41;;;11.26;100.00
59513;BME280;45330;51.634;5.562;2022-11-15T14:56:27;100177.84;;;11.15;100.00
59513;BME280;45330;51.634;5.562;2022-11-15T14:58:52;100182.09;;;11.21;100.00
59513;BME280;45330;51.634;5.562;2022-11-15T15:01:26;100166.69;;;11.09;100.00
59513;BME280;45330;51.634;5.562;2022-11-15T15:03:52;100168.25;;;11.18;100.00
59513;BME280;45330;51.634;5.562;2022-11-15T15:06:21;100160.50;;;11.14;100.00